Time;durP1;ratioP1;P1;durP2;ratioP2;P2;SDS_P1;SDS_P2;PMS_P1;PMS_P2;Temp;Humidity;BMP_temperature;BMP_pressure;BME280_temperature;BME280_humidity;BME280_pressure;Samples;Min_cycle;Max_cycle;Signal;HPM_P1;HPM_P2
2022/03/08 00:02:17;;;;;;;2.50;2.30;;;20.20;33.10;;;;;;4994488;28;20054;-58
2022/03/08 00:04:43;;;;;;;2.78;2.40;;;20.10;33.10;;;;;;4994862;28;20039;-60
2022/03/08 00:07:08;;;;;;;3.15;2.83;;;20.10;33.00;;;;;;4992745;28;20042;-58
2022/03/08 00:09:34;;;;;;;3.08;2.78;;;20.10;33.00;;;;;;4993134;28;20505;-59
2022/03/08 00:11:59;;;;;;;3.00;2.75;;;20.20;33.00;;;;;;4992787;28;20987;-57
2022/03/08 00:14:25;;;;;;;2.88;2.63;;;20.10;32.90;;;;;;4995015;28;20042;-57
2022/03/08 00:16:51;;;;;;;2.78;2.58;;;20.10;32.90;;;;;;4994092;28;20065;-58
2022/03/08 00:19:16;;;;;;;2.72;2.53;;;20.10;32.90;;;;;;4993110;28;20085;-59
2022/03/08 00:21:42;;;;;;;3.38;2.80;;;20.10;32.90;;;;;;4988778;28;20038;-58
2022/03/08 00:24:08;;;;;;;2.80;2.60;;;20.10;32.90;;;;;;4989960;28;20474;-58
2022/03/08 00:26:34;;;;;;;3.10;2.80;;;20.10;32.90;;;;;;4991807;28;20769;-60
2022/03/08 00:28:59;;;;;;;3.15;2.85;;;20.10;32.80;;;;;;4992092;28;20046;-59
2022/03/08 00:31:25;;;;;;;2.97;2.70;;;20.00;32.80;;;;;;4992441;28;20038;-58
2022/03/08 00:33:50;;;;;;;2.88;2.58;;;20.00;32.80;;;;;;4992864;28;20046;-58
2022/03/08 00:36:16;;;;;;;3.47;2.50;;;20.00;32.80;;;;;;4993007;28;20053;-58
2022/03/08 00:38:42;;;;;;;3.10;2.50;;;20.00;32.80;;;;;;4993920;28;20046;-58
2022/03/08 00:41:08;;;;;;;3.22;2.65;;;20.00;32.80;;;;;;4994691;28;20054;-58
2022/03/08 00:43:33;;;;;;;3.10;2.63;;;20.00;32.70;;;;;;4991770;28;20038;-59
2022/03/08 00:45:59;;;;;;;3.00;2.70;;;20.00;32.80;;;;;;4978458;28;20064;-58
2022/03/08 00:48:24;;;;;;;3.53;2.58;;;20.00;32.70;;;;;;4991824;28;20054;-57
2022/03/08 00:50:51;;;;;;;3.28;2.53;;;20.00;32.70;;;;;;4989536;28;20054;-58
2022/03/08 00:53:17;;;;;;;2.80;2.60;;;20.00;32.70;;;;;;4990006;28;20120;-59
2022/03/08 00:55:43;;;;;;;2.60;2.40;;;20.00;32.70;;;;;;4993036;28;20258;-58
2022/03/08 00:58:09;;;;;;;3.63;2.55;;;20.00;32.60;;;;;;4989750;28;20532;-57
2022/03/08 01:00:37;;;;;;;2.97;2.70;;;20.00;32.60;;;;;;4990430;28;20050;-58
2022/03/08 01:03:03;;;;;;;2.80;2.60;;;19.90;32.50;;;;;;4993500;28;20461;-58
2022/03/08 01:05:30;;;;;;;3.45;2.58;;;19.90;32.50;;;;;;4989469;28;20096;-57
2022/03/08 01:07:57;;;;;;;2.75;2.50;;;19.90;32.50;;;;;;4993139;28;20049;-59
2022/03/08 01:10:24;;;;;;;2.70;2.50;;;19.90;32.50;;;;;;4993653;28;20054;-58
2022/03/08 01:12:51;;;;;;;2.58;2.38;;;19.90;32.50;;;;;;4989753;28;20058;-58
2022/03/08 01:15:18;;;;;;;3.20;2.70;;;19.90;32.60;;;;;;4992435;28;20053;-57
2022/03/08 01:17:44;;;;;;;3.40;2.72;;;19.90;32.50;;;;;;4989389;28;20042;-57
2022/03/08 01:20:11;;;;;;;2.88;2.63;;;19.90;32.50;;;;;;4998730;28;20141;-58
2022/03/08 01:22:37;;;;;;;3.40;3.10;;;19.90;32.50;;;;;;4991187;28;20050;-58
2022/03/08 01:25:04;;;;;;;3.65;2.50;;;19.90;32.50;;;;;;4991520;28;20077;-59
2022/03/08 01:27:30;;;;;;;3.42;2.70;;;19.80;32.40;;;;;;4990276;28;20401;-58
2022/03/08 01:29:56;;;;;;;3.22;2.92;;;19.80;32.40;;;;;;4991568;28;20057;-59
2022/03/08 01:32:21;;;;;;;2.67;2.47;;;19.80;32.40;;;;;;4990883;28;20097;-59
2022/03/08 01:34:47;;;;;;;3.00;2.80;;;19.80;32.40;;;;;;4990627;28;20105;-60
2022/03/08 01:37:13;;;;;;;3.03;2.72;;;19.80;32.30;;;;;;4991166;28;20386;-59
2022/03/08 01:39:39;;;;;;;2.95;2.60;;;19.80;32.40;;;;;;4990785;28;20046;-58
2022/03/08 01:42:10;;;;;;;2.92;2.67;;;19.80;32.30;;;;;;4993978;28;20038;-59
2022/03/08 01:44:36;;;;;;;2.70;2.50;;;19.80;32.30;;;;;;4996123;28;20046;-59
2022/03/08 01:47:01;;;;;;;5.63;3.30;;;19.80;32.30;;;;;;4991958;28;20058;-58
2022/03/08 01:49:27;;;;;;;2.85;2.58;;;19.80;32.30;;;;;;4995922;28;20060;-58
2022/03/08 01:51:52;;;;;;;3.25;2.70;;;19.80;32.30;;;;;;4993738;28;20235;-59
2022/03/08 01:54:18;;;;;;;2.90;2.60;;;19.80;32.20;;;;;;4997856;28;20049;-61
2022/03/08 01:56:44;;;;;;;3.13;2.83;;;19.80;32.20;;;;;;4996869;28;20966;-58
2022/03/08 01:59:10;;;;;;;3.03;2.78;;;19.80;32.20;;;;;;4995710;28;20050;-59
2022/03/08 02:01:35;;;;;;;3.35;3.00;;;19.80;32.20;;;;;;4992998;28;20084;-58
2022/03/08 02:04:01;;;;;;;3.30;3.00;;;19.70;32.20;;;;;;4993512;28;20042;-59
2022/03/08 02:06:28;;;;;;;3.03;2.83;;;19.70;32.10;;;;;;4995576;28;20098;-59
2022/03/08 02:08:53;;;;;;;4.53;2.97;;;19.70;32.20;;;;;;4995497;28;20069;-58
2022/03/08 02:11:20;;;;;;;3.05;2.75;;;19.70;32.10;;;;;;5001476;28;20121;-58
2022/03/08 02:13:45;;;;;;;3.65;3.30;;;19.70;32.10;;;;;;4993069;28;20046;-58
2022/03/08 02:16:11;;;;;;;2.70;2.50;;;19.70;32.20;;;;;;4994279;28;20046;-58
2022/03/08 02:18:37;;;;;;;4.43;2.90;;;19.70;32.20;;;;;;4995703;28;20177;-59
2022/03/08 02:21:05;;;;;;;3.28;2.97;;;19.70;32.10;;;;;;4994950;28;20114;-58
2022/03/08 02:23:30;;;;;;;4.07;3.38;;;19.70;32.10;;;;;;5009470;28;20043;-59
2022/03/08 02:25:56;;;;;;;2.90;2.70;;;19.70;32.10;;;;;;4994849;28;20045;-58
2022/03/08 02:28:22;;;;;;;3.55;3.25;;;19.70;32.10;;;;;;4993060;28;20043;-60
2022/03/08 02:30:47;;;;;;;4.15;2.83;;;19.60;32.10;;;;;;4993269;28;20135;-59
2022/03/08 02:33:13;;;;;;;3.40;3.10;;;19.60;32.00;;;;;;4992167;28;20050;-59
2022/03/08 02:35:38;;;;;;;2.97;2.70;;;19.60;32.00;;;;;;4995739;28;20053;-60
2022/03/08 02:38:06;;;;;;;3.17;2.88;;;19.60;32.00;;;;;;4995345;28;20042;-60
2022/03/08 02:40:37;;;;;;;3.05;2.75;;;19.60;32.00;;;;;;4992849;28;20609;-58
2022/03/08 02:43:04;;;;;;;2.90;2.70;;;19.60;32.00;;;;;;4991543;28;20054;-59
2022/03/08 02:45:30;;;;;;;3.30;3.00;;;19.60;32.00;;;;;;4994979;28;20050;-58
2022/03/08 02:47:56;;;;;;;3.00;2.80;;;19.60;32.00;;;;;;4994335;28;20061;-58
2022/03/08 02:50:21;;;;;;;3.38;2.90;;;19.60;32.00;;;;;;4994835;28;20061;-58
2022/03/08 02:52:51;;;;;;;3.30;3.00;;;19.60;32.00;;;;;;4993997;28;21594;-58
2022/03/08 02:55:18;;;;;;;3.53;3.22;;;19.60;32.00;;;;;;4993056;28;20042;-60
2022/03/08 02:57:43;;;;;;;3.03;2.83;;;19.60;32.00;;;;;;4991367;28;20509;-58
2022/03/08 03:00:14;;;;;;;3.40;3.10;;;19.60;31.90;;;;;;4991899;28;20108;-60
2022/03/08 03:02:39;;;;;;;3.20;2.90;;;19.60;31.90;;;;;;4988098;28;20121;-60
2022/03/08 03:05:05;;;;;;;3.40;3.10;;;19.60;31.90;;;;;;4992486;28;20039;-58
2022/03/08 03:07:32;;;;;;;3.65;3.33;;;19.50;32.00;;;;;;4993580;28;20128;-59
2022/03/08 03:09:57;;;;;;;3.95;3.15;;;19.60;32.00;;;;;;4991158;28;20045;-60
2022/03/08 03:12:23;;;;;;;3.70;3.40;;;19.50;32.00;;;;;;4993144;28;20678;-58
2022/03/08 03:14:49;;;;;;;3.40;3.08;;;19.50;31.90;;;;;;4995966;28;20084;-60
2022/03/08 03:17:16;;;;;;;3.70;3.33;;;19.50;31.90;;;;;;4995248;28;20517;-58
2022/03/08 03:19:42;;;;;;;5.22;3.35;;;19.50;31.90;;;;;;4994091;28;20080;-60
2022/03/08 03:22:07;;;;;;;3.97;3.58;;;19.50;32.00;;;;;;4992816;28;20141;-58
2022/03/08 03:24:33;;;;;;;3.72;3.25;;;19.50;31.90;;;;;;4994570;28;20046;-58
2022/03/08 03:26:58;;;;;;;3.30;3.00;;;19.50;31.90;;;;;;4994251;28;20174;-58
2022/03/08 03:29:24;;;;;;;3.30;3.00;;;19.50;31.90;;;;;;4995276;28;20494;-58
2022/03/08 03:31:49;;;;;;;3.65;3.35;;;19.50;31.90;;;;;;4993032;28;20427;-58
2022/03/08 03:34:15;;;;;;;3.35;3.05;;;19.40;31.80;;;;;;4993480;28;20490;-58
2022/03/08 03:36:40;;;;;;;3.55;3.25;;;19.50;31.90;;;;;;4993342;28;20042;-59
2022/03/08 03:39:06;;;;;;;3.30;3.00;;;19.50;31.80;;;;;;4990498;28;20064;-58
2022/03/08 03:41:32;;;;;;;3.38;3.08;;;19.50;31.90;;;;;;4992088;28;20065;-59
2022/03/08 03:43:58;;;;;;;3.67;3.38;;;19.50;31.90;;;;;;4991367;28;20041;-58
2022/03/08 03:46:23;;;;;;;3.92;3.58;;;19.40;31.80;;;;;;4992834;28;20042;-59
2022/03/08 03:48:49;;;;;;;3.78;3.47;;;19.40;31.80;;;;;;4993135;28;20069;-58
2022/03/08 03:51:16;;;;;;;3.78;3.45;;;19.40;31.80;;;;;;4995938;28;20046;-58
2022/03/08 03:53:43;;;;;;;3.42;3.13;;;19.40;31.80;;;;;;4992548;28;20628;-60
2022/03/08 03:56:08;;;;;;;3.75;3.03;;;19.40;32.50;;;;;;4997754;28;20046;-58
2022/03/08 03:58:34;;;;;;;3.50;3.20;;;19.40;31.80;;;;;;4994540;28;20610;-58
2022/03/08 04:01:00;;;;;;;3.75;3.40;;;19.40;31.80;;;;;;4993513;28;20042;-58
2022/03/08 04:03:25;;;;;;;3.78;3.33;;;19.40;31.90;;;;;;4992269;28;20116;-58
2022/03/08 04:05:51;;;;;;;3.53;3.22;;;19.40;31.80;;;;;;4993285;28;20071;-59
2022/03/08 04:08:20;;;;;;;4.00;3.45;;;19.40;31.70;;;;;;4993332;28;20139;-58
2022/03/08 04:10:52;;;;;;;3.75;3.45;;;19.40;31.70;;;;;;4993035;28;20072;-58
2022/03/08 04:13:18;;;;;;;4.47;3.25;;;19.40;31.70;;;;;;4993551;28;20064;-58
2022/03/08 04:15:44;;;;;;;3.85;3.55;;;19.40;31.70;;;;;;4991691;28;20050;-58
2022/03/08 04:18:12;;;;;;;4.30;3.15;;;19.40;31.70;;;;;;4994536;28;20047;-58
2022/03/08 04:20:39;;;;;;;3.38;3.08;;;19.40;31.70;;;;;;4993623;28;20104;-59
2022/03/08 04:23:04;;;;;;;3.40;3.10;;;19.40;31.70;;;;;;4992708;28;20775;-58
2022/03/08 04:25:30;;;;;;;3.75;3.42;;;19.40;31.60;;;;;;4993533;28;20482;-57
2022/03/08 04:27:56;;;;;;;3.20;3.00;;;19.40;31.60;;;;;;4993227;28;20100;-58
2022/03/08 04:30:22;;;;;;;3.28;2.92;;;19.40;31.60;;;;;;4992908;28;20132;-58
2022/03/08 04:32:50;;;;;;;3.40;3.10;;;19.40;31.70;;;;;;4992173;28;20922;-59
2022/03/08 04:35:17;;;;;;;3.47;3.17;;;19.40;31.70;;;;;;4989411;28;20449;-58
2022/03/08 04:37:42;;;;;;;3.60;3.03;;;19.40;31.70;;;;;;4992819;28;20403;-59
2022/03/08 04:40:09;;;;;;;3.33;3.03;;;19.40;31.70;;;;;;4993836;28;20049;-58
2022/03/08 04:42:34;;;;;;;3.38;3.08;;;19.40;31.70;;;;;;4994057;28;20389;-57
2022/03/08 04:45:00;;;;;;;3.60;3.30;;;19.40;31.60;;;;;;4993508;28;20046;-58
2022/03/08 04:47:25;;;;;;;3.15;2.95;;;19.40;31.70;;;;;;4993220;28;20057;-57
2022/03/08 04:49:51;;;;;;;3.55;3.25;;;19.50;31.70;;;;;;4990267;28;20092;-58
2022/03/08 04:52:17;;;;;;;3.58;3.20;;;19.40;31.60;;;;;;4993917;28;20058;-59
2022/03/08 04:54:42;;;;;;;3.60;3.30;;;19.50;31.70;;;;;;4991957;28;20129;-57
2022/03/08 04:57:08;;;;;;;4.28;3.38;;;19.50;31.70;;;;;;4992389;28;20077;-59
2022/03/08 04:59:33;;;;;;;3.28;3.08;;;19.50;31.60;;;;;;4993463;28;20042;-59
2022/03/08 05:01:59;;;;;;;3.08;2.88;;;19.50;31.70;;;;;;4989363;28;20046;-57
2022/03/08 05:04:24;;;;;;;2.83;2.60;;;19.50;31.80;;;;;;4992618;28;20050;-58
2022/03/08 05:06:50;;;;;;;3.55;3.20;;;19.50;31.80;;;;;;4990634;28;20072;-59
2022/03/08 05:09:16;;;;;;;3.45;3.15;;;19.60;31.90;;;;;;4989365;28;20095;-58
2022/03/08 05:11:42;;;;;;;3.50;3.20;;;19.60;32.70;;;;;;4992322;28;20057;-60
2022/03/08 05:14:08;;;;;;;3.22;2.92;;;19.60;31.80;;;;;;4997013;28;20046;-58
2022/03/08 05:16:33;;;;;;;3.25;2.95;;;19.60;31.80;;;;;;4988564;28;20045;-57
2022/03/08 05:18:59;;;;;;;2.92;2.72;;;19.60;31.80;;;;;;4989980;28;20423;-57
2022/03/08 05:21:24;;;;;;;3.53;2.80;;;19.60;31.70;;;;;;4990166;28;20125;-60
2022/03/08 05:23:50;;;;;;;3.22;2.92;;;19.70;31.90;;;;;;4993527;28;20120;-58
2022/03/08 05:26:16;;;;;;;3.60;3.30;;;19.70;31.80;;;;;;4992342;28;20069;-58
2022/03/08 05:28:46;;;;;;;4.18;3.30;;;19.70;31.80;;;;;;4993010;28;20082;-59
2022/03/08 05:31:12;;;;;;;3.40;3.03;;;19.70;31.80;;;;;;4988891;28;20046;-59
2022/03/08 05:33:38;;;;;;;3.08;2.85;;;19.70;31.90;;;;;;4992590;28;20069;-57
2022/03/08 05:36:04;;;;;;;3.10;2.80;;;19.70;32.20;;;;;;4997215;28;20038;-58
2022/03/08 05:38:30;;;;;;;3.53;3.22;;;19.80;32.20;;;;;;4992956;28;20037;-58
2022/03/08 05:40:55;;;;;;;3.10;2.80;;;19.70;32.30;;;;;;4994219;28;20042;-58
2022/03/08 05:43:21;;;;;;;2.60;2.42;;;19.80;32.40;;;;;;4989415;28;20065;-57
2022/03/08 05:45:46;;;;;;;3.17;2.88;;;19.80;32.50;;;;;;4986752;28;20153;-60
2022/03/08 05:48:12;;;;;;;4.32;3.05;;;19.80;32.70;;;;;;4991761;28;20126;-59
2022/03/08 05:50:38;;;;;;;3.33;3.03;;;19.80;32.80;;;;;;4991098;28;20050;-58
2022/03/08 05:53:04;;;;;;;3.28;2.97;;;19.80;32.90;;;;;;4990805;28;20147;-58
2022/03/08 05:55:30;;;;;;;3.50;3.13;;;19.80;33.00;;;;;;4997175;28;20089;-59
2022/03/08 05:57:55;;;;;;;3.38;3.08;;;19.80;33.10;;;;;;4992586;28;20046;-58
2022/03/08 06:00:21;;;;;;;3.38;3.08;;;19.80;33.10;;;;;;4990451;28;20060;-58
2022/03/08 06:02:47;;;;;;;4.65;2.60;;;19.90;33.10;;;;;;4989939;28;20054;-58
2022/03/08 06:05:13;;;;;;;2.65;2.45;;;19.80;33.10;;;;;;4992397;28;20048;-57
2022/03/08 06:07:38;;;;;;;3.45;3.10;;;19.80;33.10;;;;;;4994874;28;20042;-57
2022/03/08 06:10:07;;;;;;;3.10;2.80;;;19.80;33.10;;;;;;4990109;28;20109;-58
2022/03/08 06:12:33;;;;;;;3.35;3.05;;;19.90;33.20;;;;;;4990587;28;20054;-58
2022/03/08 06:14:59;;;;;;;4.03;3.15;;;19.90;33.20;;;;;;4988727;28;20074;-59
2022/03/08 06:17:25;;;;;;;3.15;2.95;;;19.80;33.20;;;;;;5008985;28;20191;-60
2022/03/08 06:19:50;;;;;;;3.15;2.50;;;19.90;33.20;;;;;;4993457;28;20046;-59
2022/03/08 06:22:16;;;;;;;3.78;3.38;;;19.90;33.20;;;;;;4988038;28;20480;-59
2022/03/08 06:24:41;;;;;;;3.28;2.80;;;19.90;33.20;;;;;;4989890;28;20042;-59
2022/03/08 06:27:07;;;;;;;3.30;3.00;;;19.90;33.00;;;;;;4989692;28;20061;-58
2022/03/08 06:29:32;;;;;;;3.45;3.10;;;19.90;33.00;;;;;;4990380;28;20042;-59
2022/03/08 06:31:58;;;;;;;3.72;3.38;;;19.90;33.00;;;;;;4995454;28;20053;-58
2022/03/08 06:34:24;;;;;;;3.83;3.42;;;19.90;33.00;;;;;;4993778;28;20038;-58
2022/03/08 06:36:49;;;;;;;4.13;3.20;;;20.00;32.90;;;;;;4995572;28;20597;-59
2022/03/08 06:39:15;;;;;;;3.85;3.45;;;20.00;32.90;;;;;;4995273;28;20136;-59
2022/03/08 06:41:41;;;;;;;3.28;2.97;;;19.90;32.80;;;;;;4992799;28;20047;-59
2022/03/08 06:44:08;;;;;;;3.50;3.20;;;20.00;33.50;;;;;;4995751;28;20784;-58
2022/03/08 06:46:33;;;;;;;4.30;3.90;;;20.00;32.80;;;;;;4995778;28;20054;-60
2022/03/08 06:48:59;;;;;;;4.28;3.42;;;20.00;32.80;;;;;;4979189;28;20061;-59
2022/03/08 06:51:25;;;;;;;3.65;3.35;;;20.00;32.80;;;;;;4995542;28;20058;-59
2022/03/08 06:53:51;;;;;;;4.68;3.60;;;20.00;32.90;;;;;;4996819;28;20063;-59
2022/03/08 06:56:17;;;;;;;5.10;3.90;;;20.00;33.00;;;;;;4990942;28;20457;-59
2022/03/08 06:58:43;;;;;;;3.92;3.53;;;20.10;33.20;;;;;;4999686;28;20052;-59
2022/03/08 07:01:09;;;;;;;3.50;3.17;;;20.10;33.30;;;;;;4994232;28;20046;-60
2022/03/08 07:03:34;;;;;;;3.38;3.08;;;20.10;33.30;;;;;;4995867;28;20107;-59
2022/03/08 07:06:00;;;;;;;3.35;3.05;;;20.10;33.40;;;;;;4982010;28;20808;-60
2022/03/08 07:08:25;;;;;;;3.78;3.17;;;20.10;33.40;;;;;;4996087;28;20095;-57
2022/03/08 07:10:51;;;;;;;3.67;3.38;;;20.10;33.40;;;;;;4993202;28;20053;-58
2022/03/08 07:13:17;;;;;;;5.00;3.42;;;20.10;33.40;;;;;;4994155;28;20123;-58
2022/03/08 07:15:42;;;;;;;3.95;3.35;;;20.20;33.50;;;;;;4997715;28;20455;-58
2022/03/08 07:18:08;;;;;;;3.85;3.55;;;20.20;33.50;;;;;;4994520;28;20041;-58
2022/03/08 07:20:34;;;;;;;3.85;3.00;;;20.20;33.40;;;;;;4996456;28;20813;-59
2022/03/08 07:22:59;;;;;;;4.75;3.13;;;20.20;33.40;;;;;;4996987;28;20046;-62
2022/03/08 07:25:25;;;;;;;3.55;3.13;;;20.20;33.50;;;;;;4990481;28;20046;-64
2022/03/08 07:27:50;;;;;;;3.40;3.08;;;20.20;33.40;;;;;;4993426;28;20193;-63
2022/03/08 07:30:16;;;;;;;4.15;3.28;;;20.20;33.30;;;;;;4995452;28;20130;-62
2022/03/08 07:32:42;;;;;;;4.75;3.33;;;20.20;33.30;;;;;;4994832;28;20132;-62
2022/03/08 07:35:08;;;;;;;3.45;3.00;;;20.20;33.30;;;;;;4993720;28;20060;-63
2022/03/08 07:37:35;;;;;;;3.30;3.00;;;20.20;33.20;;;;;;4997646;28;20765;-59
2022/03/08 07:40:02;;;;;;;3.22;2.97;;;20.30;33.30;;;;;;4977623;28;20049;-59
2022/03/08 07:42:28;;;;;;;3.25;2.95;;;20.30;33.30;;;;;;4995136;28;20057;-59
2022/03/08 07:44:53;;;;;;;3.45;2.70;;;20.30;33.30;;;;;;4992101;28;20683;-60
2022/03/08 07:47:19;;;;;;;3.42;3.10;;;20.30;33.30;;;;;;5008899;28;20153;-59
2022/03/08 07:49:45;;;;;;;4.13;3.13;;;20.30;33.50;;;;;;4994732;28;20061;-59
2022/03/08 07:52:11;;;;;;;3.60;3.10;;;20.30;33.60;;;;;;4978037;28;20074;-60
2022/03/08 07:54:37;;;;;;;3.67;2.92;;;20.30;33.70;;;;;;4993602;28;20662;-60
2022/03/08 07:57:03;;;;;;;3.28;2.83;;;20.30;33.80;;;;;;4988544;28;20517;-60
2022/03/08 07:59:29;;;;;;;4.90;2.83;;;20.30;33.90;;;;;;4991372;28;20062;-59
2022/03/08 08:01:55;;;;;;;3.03;2.67;;;20.30;34.00;;;;;;4994344;28;20050;-60
2022/03/08 08:04:20;;;;;;;4.13;2.90;;;20.40;34.00;;;;;;4991333;28;20249;-60
2022/03/08 08:06:46;;;;;;;4.05;2.60;;;20.40;34.00;;;;;;4990857;28;20073;-60
2022/03/08 08:09:12;;;;;;;2.58;2.30;;;20.40;34.00;;;;;;4993794;28;20046;-60
2022/03/08 08:11:38;;;;;;;2.80;2.28;;;20.40;34.00;;;;;;4994587;28;20544;-60
2022/03/08 08:14:04;;;;;;;2.40;2.20;;;20.40;34.00;;;;;;4996300;28;20706;-60
2022/03/08 08:16:29;;;;;;;3.15;2.60;;;20.50;34.00;;;;;;4993543;28;20049;-60
2022/03/08 08:18:58;;;;;;;5.10;2.88;;;20.50;34.00;;;;;;4990288;28;20053;-60
2022/03/08 08:21:24;;;;;;;4.05;2.95;;;20.50;34.00;;;;;;4991592;28;20046;-59
2022/03/08 08:23:49;;;;;;;4.30;2.85;;;20.50;33.90;;;;;;4980251;28;20053;-59
2022/03/08 08:26:15;;;;;;;2.90;2.60;;;20.50;33.90;;;;;;4995439;28;20061;-59
2022/03/08 08:28:41;;;;;;;3.20;2.55;;;20.50;34.00;;;;;;4991188;28;20050;-59
2022/03/08 08:31:06;;;;;;;3.72;2.63;;;20.50;34.00;;;;;;4993577;28;20088;-60
2022/03/08 08:33:32;;;;;;;3.28;2.45;;;20.60;34.20;;;;;;4990600;28;20561;-60
2022/03/08 08:35:58;;;;;;;4.18;2.70;;;20.50;34.20;;;;;;4993992;28;20052;-60
2022/03/08 08:38:24;;;;;;;3.15;2.58;;;20.60;34.20;;;;;;4993108;28;20140;-60
2022/03/08 08:40:50;;;;;;;4.15;2.05;;;20.60;34.90;;;;;;4994191;28;20046;-60
2022/03/08 08:43:15;;;;;;;2.70;2.45;;;20.60;34.10;;;;;;4995389;28;20916;-60
2022/03/08 08:45:41;;;;;;;4.05;2.22;;;20.60;34.20;;;;;;4994610;28;20045;-60
2022/03/08 08:48:07;;;;;;;3.22;2.28;;;20.60;34.10;;;;;;4989219;28;20568;-60
2022/03/08 08:50:33;;;;;;;3.55;2.15;;;20.70;34.20;;;;;;4993574;28;20049;-60
2022/03/08 08:52:59;;;;;;;2.92;1.98;;;20.60;34.10;;;;;;4990547;28;20061;-60
2022/03/08 08:55:25;;;;;;;2.95;2.22;;;20.60;34.10;;;;;;4993259;28;20042;-60
2022/03/08 08:57:51;;;;;;;3.38;2.35;;;20.70;34.10;;;;;;4993733;28;20073;-60
2022/03/08 09:00:17;;;;;;;3.75;2.33;;;20.70;34.00;;;;;;4993867;28;20050;-60
2022/03/08 09:02:43;;;;;;;3.08;2.10;;;20.70;34.00;;;;;;5004802;28;20391;-59
2022/03/08 09:05:10;;;;;;;2.92;2.22;;;20.70;34.00;;;;;;4993860;28;20050;-59
2022/03/08 09:07:36;;;;;;;2.30;2.10;;;20.70;33.90;;;;;;4994187;28;20060;-60
2022/03/08 09:10:04;;;;;;;3.00;2.15;;;20.70;33.90;;;;;;4995146;28;20128;-60
2022/03/08 09:12:29;;;;;;;2.45;2.05;;;20.80;33.90;;;;;;4990949;28;20052;-60
2022/03/08 09:14:55;;;;;;;4.95;2.67;;;20.80;33.80;;;;;;4992938;28;20046;-60
2022/03/08 09:17:21;;;;;;;2.30;2.10;;;20.80;33.80;;;;;;4991690;28;20041;-60
2022/03/08 09:19:48;;;;;;;3.08;2.20;;;20.80;34.70;;;;;;4993995;28;20065;-60
2022/03/08 09:22:13;;;;;;;2.47;2.25;;;20.80;33.70;;;;;;4990142;28;20061;-60
2022/03/08 09:24:39;;;;;;;2.67;2.17;;;20.80;33.70;;;;;;4993009;28;20045;-59
2022/03/08 09:27:05;;;;;;;2.42;1.92;;;20.80;33.70;;;;;;4993000;28;20050;-60
2022/03/08 09:29:31;;;;;;;2.42;2.00;;;20.80;33.60;;;;;;4992915;28;20127;-60
2022/03/08 09:31:57;;;;;;;2.33;2.10;;;20.80;33.70;;;;;;5003032;28;20137;-59
2022/03/08 09:34:22;;;;;;;2.08;1.80;;;20.80;33.60;;;;;;4997692;28;20081;-59
2022/03/08 09:36:48;;;;;;;2.50;2.28;;;20.90;33.70;;;;;;4992781;28;20042;-59
2022/03/08 09:39:13;;;;;;;2.35;1.88;;;20.80;33.60;;;;;;4991388;28;20605;-60
2022/03/08 09:41:41;;;;;;;2.45;1.77;;;20.90;33.60;;;;;;4990968;28;20053;-59
2022/03/08 09:44:12;;;;;;;3.35;2.05;;;20.90;33.50;;;;;;4990179;28;20054;-58
2022/03/08 09:46:38;;;;;;;2.10;1.92;;;20.90;33.50;;;;;;4992827;28;20074;-59
2022/03/08 09:49:04;;;;;;;2.58;1.80;;;20.90;33.50;;;;;;4997847;28;20054;-60
2022/03/08 09:51:29;;;;;;;1.90;1.70;;;20.90;33.40;;;;;;4991928;28;20056;-61
2022/03/08 09:53:55;;;;;;;2.30;1.90;;;20.90;33.40;;;;;;4991217;28;20049;-60
2022/03/08 09:56:21;;;;;;;2.20;1.80;;;20.90;33.40;;;;;;4992870;28;20038;-60
2022/03/08 09:58:48;;;;;;;2.10;1.90;;;20.90;33.40;;;;;;4989160;28;20049;-60
2022/03/08 10:01:13;;;;;;;2.03;1.80;;;20.90;33.40;;;;;;4993004;28;20502;-60
2022/03/08 10:03:42;;;;;;;2.22;1.95;;;20.90;33.50;;;;;;4992299;28;20034;-60
2022/03/08 10:06:09;;;;;;;2.92;1.60;;;20.90;33.40;;;;;;4996122;28;20049;-60
2022/03/08 10:08:35;;;;;;;2.38;1.50;;;20.90;33.50;;;;;;4994535;28;20045;-60
2022/03/08 10:11:11;;;;;;;2.22;1.83;;;20.90;33.50;;;;;;4996505;28;20100;-60
2022/03/08 10:13:50;;;;;;;2.03;1.58;;;20.90;33.40;;;;;;4993323;28;20048;-60
2022/03/08 10:16:49;;;;;;;3.35;1.98;;;20.90;33.30;;;;;;4994756;28;20060;-60
2022/03/08 10:19:11;;;;;;;2.22;1.55;;;21.00;33.40;;;;;;4995381;28;20097;-60
2022/03/08 10:21:39;;;;;;;2.13;1.63;;;20.90;33.40;;;;;;4993587;28;20490;-60
2022/03/08 10:24:26;;;;;;;2.20;1.70;;;20.90;33.30;;;;;;4997262;28;20053;-60
2022/03/08 10:26:58;;;;;;;2.50;1.65;;;21.00;33.30;;;;;;5009786;28;20120;-60
2022/03/08 10:29:28;;;;;;;2.60;1.60;;;21.00;33.30;;;;;;4995247;28;20070;-60
2022/03/08 10:32:16;;;;;;;2.23;1.70;;;21.00;33.20;;;;;;4996727;28;20046;-60
2022/03/08 10:34:43;;;;;;;2.08;1.67;;;21.00;33.20;;;;;;4994091;28;20494;-60
2022/03/08 10:37:13;;;;;;;1.98;1.42;;;20.90;33.10;;;;;;4993132;28;20061;-59
2022/03/08 10:39:57;;;;;;;1.52;1.42;;;21.00;33.20;;;;;;4996404;28;20057;-59
2022/03/08 10:42:31;;;;;;;1.60;1.50;;;21.00;33.10;;;;;;5006489;28;20093;-60
2022/03/08 10:45:08;;;;;;;1.45;1.33;;;21.00;33.10;;;;;;4994168;28;20462;-60
2022/03/08 10:47:42;;;;;;;2.58;1.50;;;21.00;33.10;;;;;;4997705;28;20054;-60
2022/03/08 10:50:10;;;;;;;1.85;1.50;;;21.00;33.10;;;;;;4994965;28;20494;-60
2022/03/08 10:52:38;;;;;;;2.38;1.50;;;21.00;33.00;;;;;;4995116;28;20046;-59
2022/03/08 10:55:20;;;;;;;2.45;1.90;;;21.00;33.10;;;;;;4994611;28;20042;-59
2022/03/08 10:57:54;;;;;;;1.58;1.48;;;21.00;33.10;;;;;;4995315;28;20049;-60
2022/03/08 11:00:41;;;;;;;3.80;1.50;;;21.00;33.10;;;;;;4993918;28;20046;-60
2022/03/08 11:03:17;;;;;;;2.63;1.73;;;21.00;33.10;;;;;;4996832;28;20065;-60
2022/03/08 11:05:59;;;;;;;2.58;1.60;;;21.00;33.10;;;;;;4996657;28;21285;-59
2022/03/08 11:08:27;;;;;;;1.77;1.50;;;21.00;33.10;;;;;;4995301;28;20062;-59
2022/03/08 11:10:53;;;;;;;2.33;1.50;;;21.00;33.10;;;;;;4993501;28;20074;-60
2022/03/08 11:13:19;;;;;;;2.45;1.50;;;21.00;33.10;;;;;;5001621;28;20128;-60
2022/03/08 11:15:44;;;;;;;2.00;1.30;;;21.00;33.00;;;;;;4995334;28;21000;-60
2022/03/08 11:18:12;;;;;;;1.50;1.30;;;21.00;33.00;;;;;;4993710;28;20050;-60
2022/03/08 11:20:41;;;;;;;1.60;1.50;;;21.00;33.00;;;;;;4995474;28;20116;-60
2022/03/08 11:23:07;;;;;;;3.35;1.70;;;21.00;33.00;;;;;;4991157;28;20050;-60
2022/03/08 11:25:37;;;;;;;1.38;1.27;;;21.00;33.00;;;;;;4998040;28;20049;-60
2022/03/08 11:28:04;;;;;;;1.60;1.50;;;21.00;33.00;;;;;;4994458;28;20057;-59
2022/03/08 11:30:44;;;;;;;1.77;1.25;;;21.00;33.10;;;;;;5011298;28;20046;-60
2022/03/08 11:33:40;;;;;;;1.83;1.23;;;21.00;33.10;;;;;;4999091;28;20066;-60
2022/03/08 11:36:32;;;;;;;1.83;1.40;;;21.00;33.20;;;;;;5000736;28;20050;-60
2022/03/08 11:39:20;;;;;;;1.42;1.30;;;21.00;33.20;;;;;;5008796;28;20108;-59
2022/03/08 11:41:52;;;;;;;1.85;1.30;;;21.00;34.10;;;;;;4993415;28;20172;-59
2022/03/08 11:44:22;;;;;;;1.58;1.40;;;21.00;33.30;;;;;;4993346;28;20054;-59
2022/03/08 11:47:11;;;;;;;3.42;1.25;;;21.10;33.40;;;;;;4993045;28;20038;-59
2022/03/08 11:49:38;;;;;;;2.47;1.50;;;21.00;33.20;;;;;;4994870;28;20528;-59
2022/03/08 11:52:32;;;;;;;2.40;1.48;;;21.00;33.20;;;;;;4975882;28;20502;-60
2022/03/08 11:55:06;;;;;;;2.55;1.40;;;21.00;33.30;;;;;;4991593;28;20094;-59
2022/03/08 11:57:44;;;;;;;1.77;1.30;;;21.00;33.20;;;;;;4994176;28;20505;-60
2022/03/08 12:00:42;;;;;;;1.55;1.45;;;21.10;33.30;;;;;;4993798;28;20571;-59
2022/03/08 12:03:14;;;;;;;1.42;1.33;;;21.00;33.20;;;;;;4992639;28;20164;-59
2022/03/08 12:06:01;;;;;;;1.35;1.25;;;21.10;33.20;;;;;;4990837;28;20093;-60
2022/03/08 12:08:27;;;;;;;1.80;1.58;;;21.00;33.10;;;;;;4993254;28;20048;-60
2022/03/08 12:10:58;;;;;;;2.00;1.50;;;21.00;33.20;;;;;;4993271;28;20050;-60
2022/03/08 12:13:25;;;;;;;1.50;1.40;;;21.00;33.20;;;;;;4992954;28;20093;-60
2022/03/08 12:16:08;;;;;;;1.63;1.52;;;21.00;33.30;;;;;;4992920;28;20050;-60
2022/03/08 12:18:49;;;;;;;1.30;1.20;;;21.00;33.40;;;;;;5007059;28;20560;-59
2022/03/08 12:21:14;;;;;;;1.67;1.50;;;21.00;33.50;;;;;;4994594;28;20053;-59
2022/03/08 12:24:08;;;;;;;1.45;1.30;;;21.00;33.50;;;;;;4991983;28;20054;-60
2022/03/08 12:26:57;;;;;;;3.67;1.40;;;21.10;33.60;;;;;;4993913;28;20433;-59
2022/03/08 12:29:30;;;;;;;2.30;1.25;;;21.00;33.60;;;;;;4991469;28;20045;-59
2022/03/08 12:31:56;;;;;;;1.25;1.10;;;21.00;33.60;;;;;;4994651;28;20077;-60
2022/03/08 12:34:43;;;;;;;1.92;1.20;;;21.00;33.70;;;;;;4990606;28;20124;-59
2022/03/08 12:37:19;;;;;;;1.65;1.30;;;21.10;33.60;;;;;;4994206;28;20472;-59
2022/03/08 12:40:05;;;;;;;1.88;1.33;;;21.00;33.60;;;;;;5004721;28;20046;-59
2022/03/08 12:42:53;;;;;;;1.67;1.30;;;21.10;33.60;;;;;;4993168;28;20112;-59
2022/03/08 12:45:21;;;;;;;3.90;1.38;;;21.10;33.70;;;;;;4989178;28;20054;-59
2022/03/08 12:48:05;;;;;;;4.95;1.20;;;21.10;33.60;;;;;;4989279;28;20046;-58
2022/03/08 12:50:46;;;;;;;1.05;0.93;;;21.10;33.70;;;;;;4993062;28;20056;-59
2022/03/08 12:53:25;;;;;;;2.00;1.20;;;21.00;33.60;;;;;;4990241;28;20510;-59